sensor_id;sensor_type;location;lat;lon;timestamp;P1;durP1;ratioP1;P2;durP2;ratioP2
21769;SDS011;11046;49.558;8.674;2023-03-14T00:00:57;3.17;;;1.20;;
21769;SDS011;11046;49.558;8.674;2023-03-14T00:03:58;2.67;;;1.20;;
21769;SDS011;11046;49.558;8.674;2023-03-14T00:06:59;2.17;;;1.03;;
21769;SDS011;11046;49.558;8.674;2023-03-14T00:09:59;1.50;;;1.20;;
21769;SDS011;11046;49.558;8.674;2023-03-14T00:13:00;1.40;;;1.00;;
21769;SDS011;11046;49.558;8.674;2023-03-14T00:16:02;2.60;;;1.17;;
21769;SDS011;11046;49.558;8.674;2023-03-14T00:19:03;3.37;;;1.30;;
21769;SDS011;11046;49.558;8.674;2023-03-14T00:22:04;2.47;;;1.20;;
21769;SDS011;11046;49.558;8.674;2023-03-14T00:25:05;4.17;;;1.50;;
21769;SDS011;11046;49.558;8.674;2023-03-14T00:28:07;1.83;;;1.30;;
21769;SDS011;11046;49.558;8.674;2023-03-14T00:31:08;3.60;;;1.10;;
21769;SDS011;11046;49.558;8.674;2023-03-14T00:34:11;1.33;;;1.00;;
21769;SDS011;11046;49.558;8.674;2023-03-14T00:37:11;3.37;;;1.70;;
21769;SDS011;11046;49.558;8.674;2023-03-14T00:40:13;2.73;;;1.20;;
21769;SDS011;11046;49.558;8.674;2023-03-14T00:43:14;2.80;;;1.23;;
21769;SDS011;11046;49.558;8.674;2023-03-14T00:46:14;2.73;;;1.20;;
21769;SDS011;11046;49.558;8.674;2023-03-14T00:49:17;2.43;;;1.20;;
21769;SDS011;11046;49.558;8.674;2023-03-14T00:52:17;2.10;;;1.17;;
21769;SDS011;11046;49.558;8.674;2023-03-14T00:55:18;3.23;;;1.20;;
21769;SDS011;11046;49.558;8.674;2023-03-14T00:58:18;3.30;;;1.30;;
21769;SDS011;11046;49.558;8.674;2023-03-14T01:01:19;2.87;;;1.30;;
21769;SDS011;11046;49.558;8.674;2023-03-14T01:04:20;3.20;;;1.27;;
21769;SDS011;11046;49.558;8.674;2023-03-14T01:07:20;1.67;;;1.30;;
21769;SDS011;11046;49.558;8.674;2023-03-14T01:10:21;3.10;;;1.20;;
21769;SDS011;11046;49.558;8.674;2023-03-14T01:13:22;3.60;;;1.20;;
21769;SDS011;11046;49.558;8.674;2023-03-14T01:16:23;2.47;;;1.10;;
21769;SDS011;11046;49.558;8.674;2023-03-14T01:19:26;1.80;;;1.30;;
21769;SDS011;11046;49.558;8.674;2023-03-14T01:22:28;2.63;;;1.37;;
21769;SDS011;11046;49.558;8.674;2023-03-14T01:25:28;1.50;;;1.20;;
21769;SDS011;11046;49.558;8.674;2023-03-14T01:28:30;5.20;;;1.23;;
21769;SDS011;11046;49.558;8.674;2023-03-14T01:31:30;2.47;;;1.00;;
21769;SDS011;11046;49.558;8.674;2023-03-14T01:34:31;2.10;;;1.03;;
21769;SDS011;11046;49.558;8.674;2023-03-14T01:37:32;1.37;;;1.10;;
21769;SDS011;11046;49.558;8.674;2023-03-14T01:40:33;3.70;;;1.17;;
21769;SDS011;11046;49.558;8.674;2023-03-14T01:43:34;2.60;;;1.00;;
21769;SDS011;11046;49.558;8.674;2023-03-14T01:46:39;2.23;;;1.10;;
21769;SDS011;11046;49.558;8.674;2023-03-14T01:49:52;2.10;;;1.40;;
21769;SDS011;11046;49.558;8.674;2023-03-14T01:52:57;1.37;;;0.90;;
21769;SDS011;11046;49.558;8.674;2023-03-14T01:55:58;3.30;;;1.17;;
21769;SDS011;11046;49.558;8.674;2023-03-14T01:59:00;3.87;;;1.17;;
21769;SDS011;11046;49.558;8.674;2023-03-14T02:02:04;3.33;;;1.27;;
21769;SDS011;11046;49.558;8.674;2023-03-14T02:05:07;3.13;;;1.33;;
21769;SDS011;11046;49.558;8.674;2023-03-14T02:08:11;4.80;;;1.43;;
21769;SDS011;11046;49.558;8.674;2023-03-14T02:11:28;5.37;;;1.43;;
21769;SDS011;11046;49.558;8.674;2023-03-14T02:14:39;2.27;;;1.27;;
21769;SDS011;11046;49.558;8.674;2023-03-14T02:18:11;4.30;;;1.17;;
21769;SDS011;11046;49.558;8.674;2023-03-14T02:21:42;2.47;;;1.30;;
21769;SDS011;11046;49.558;8.674;2023-03-14T02:28:21;4.97;;;1.60;;
21769;SDS011;11046;49.558;8.674;2023-03-14T02:31:26;3.20;;;1.20;;
21769;SDS011;11046;49.558;8.674;2023-03-14T02:34:27;4.53;;;1.33;;
21769;SDS011;11046;49.558;8.674;2023-03-14T02:37:32;5.87;;;1.60;;
21769;SDS011;11046;49.558;8.674;2023-03-14T02:40:42;2.83;;;1.23;;
21769;SDS011;11046;49.558;8.674;2023-03-14T02:43:43;4.63;;;1.17;;
21769;SDS011;11046;49.558;8.674;2023-03-14T02:46:45;2.47;;;1.20;;
21769;SDS011;11046;49.558;8.674;2023-03-14T02:49:46;6.73;;;1.23;;
21769;SDS011;11046;49.558;8.674;2023-03-14T02:52:48;2.57;;;1.10;;
21769;SDS011;11046;49.558;8.674;2023-03-14T02:55:49;4.23;;;1.00;;
21769;SDS011;11046;49.558;8.674;2023-03-14T02:58:52;3.33;;;0.97;;
21769;SDS011;11046;49.558;8.674;2023-03-14T03:02:11;3.50;;;1.10;;
21769;SDS011;11046;49.558;8.674;2023-03-14T03:05:12;3.57;;;1.00;;
21769;SDS011;11046;49.558;8.674;2023-03-14T03:08:12;5.30;;;1.10;;
21769;SDS011;11046;49.558;8.674;2023-03-14T03:11:14;3.87;;;1.03;;
21769;SDS011;11046;49.558;8.674;2023-03-14T03:14:14;4.43;;;1.10;;
21769;SDS011;11046;49.558;8.674;2023-03-14T03:17:15;3.03;;;1.00;;
21769;SDS011;11046;49.558;8.674;2023-03-14T03:20:16;4.10;;;1.10;;
21769;SDS011;11046;49.558;8.674;2023-03-14T03:23:16;6.83;;;1.40;;
21769;SDS011;11046;49.558;8.674;2023-03-14T03:26:17;1.77;;;1.10;;
21769;SDS011;11046;49.558;8.674;2023-03-14T03:29:18;3.80;;;1.10;;
21769;SDS011;11046;49.558;8.674;2023-03-14T03:32:19;3.33;;;1.13;;
21769;SDS011;11046;49.558;8.674;2023-03-14T03:35:20;3.80;;;1.37;;
21769;SDS011;11046;49.558;8.674;2023-03-14T03:38:21;3.53;;;1.30;;
21769;SDS011;11046;49.558;8.674;2023-03-14T03:41:24;2.87;;;1.27;;
21769;SDS011;11046;49.558;8.674;2023-03-14T03:44:26;4.60;;;1.27;;
21769;SDS011;11046;49.558;8.674;2023-03-14T03:47:26;3.53;;;1.40;;
21769;SDS011;11046;49.558;8.674;2023-03-14T03:50:30;3.00;;;1.60;;
21769;SDS011;11046;49.558;8.674;2023-03-14T03:53:31;4.80;;;1.40;;
21769;SDS011;11046;49.558;8.674;2023-03-14T03:56:31;8.47;;;1.40;;
21769;SDS011;11046;49.558;8.674;2023-03-14T03:59:32;3.83;;;1.33;;
21769;SDS011;11046;49.558;8.674;2023-03-14T04:02:32;2.50;;;1.47;;
21769;SDS011;11046;49.558;8.674;2023-03-14T04:05:33;4.57;;;1.47;;
21769;SDS011;11046;49.558;8.674;2023-03-14T04:08:42;5.87;;;1.60;;
21769;SDS011;11046;49.558;8.674;2023-03-14T04:11:48;2.93;;;1.20;;
21769;SDS011;11046;49.558;8.674;2023-03-14T04:14:55;4.63;;;1.53;;
21769;SDS011;11046;49.558;8.674;2023-03-14T04:17:57;4.47;;;1.33;;
21769;SDS011;11046;49.558;8.674;2023-03-14T04:20:58;3.90;;;1.37;;
21769;SDS011;11046;49.558;8.674;2023-03-14T04:24:08;4.00;;;1.40;;
21769;SDS011;11046;49.558;8.674;2023-03-14T04:27:09;5.03;;;1.50;;
21769;SDS011;11046;49.558;8.674;2023-03-14T04:30:10;2.80;;;1.40;;
21769;SDS011;11046;49.558;8.674;2023-03-14T04:33:20;5.57;;;1.40;;
21769;SDS011;11046;49.558;8.674;2023-03-14T04:36:25;3.07;;;1.30;;
21769;SDS011;11046;49.558;8.674;2023-03-14T04:39:27;6.03;;;1.77;;
21769;SDS011;11046;49.558;8.674;2023-03-14T04:42:37;2.57;;;1.17;;
21769;SDS011;11046;49.558;8.674;2023-03-14T04:45:41;3.10;;;1.30;;
21769;SDS011;11046;49.558;8.674;2023-03-14T04:48:44;3.63;;;1.40;;
21769;SDS011;11046;49.558;8.674;2023-03-14T04:51:44;5.13;;;1.10;;
21769;SDS011;11046;49.558;8.674;2023-03-14T04:54:45;5.27;;;1.20;;
21769;SDS011;11046;49.558;8.674;2023-03-14T04:57:46;6.07;;;1.37;;
21769;SDS011;11046;49.558;8.674;2023-03-14T05:00:48;5.03;;;1.30;;
21769;SDS011;11046;49.558;8.674;2023-03-14T05:04:07;2.30;;;1.20;;
21769;SDS011;11046;49.558;8.674;2023-03-14T05:07:21;0.90;;;0.80;;
21769;SDS011;11046;49.558;8.674;2023-03-14T05:10:32;3.20;;;1.30;;
21769;SDS011;11046;49.558;8.674;2023-03-14T05:13:51;3.37;;;1.50;;
21769;SDS011;11046;49.558;8.674;2023-03-14T05:17:19;3.67;;;1.20;;
21769;SDS011;11046;49.558;8.674;2023-03-14T05:20:44;5.00;;;1.20;;
21769;SDS011;11046;49.558;8.674;2023-03-14T05:24:01;4.07;;;1.20;;
21769;SDS011;11046;49.558;8.674;2023-03-14T05:27:11;4.37;;;1.30;;
21769;SDS011;11046;49.558;8.674;2023-03-14T05:30:18;3.50;;;1.27;;
21769;SDS011;11046;49.558;8.674;2023-03-14T05:33:19;4.00;;;1.27;;
21769;SDS011;11046;49.558;8.674;2023-03-14T05:36:31;1.97;;;1.00;;
21769;SDS011;11046;49.558;8.674;2023-03-14T05:39:48;4.13;;;1.00;;
21769;SDS011;11046;49.558;8.674;2023-03-14T05:43:06;4.20;;;1.30;;
21769;SDS011;11046;49.558;8.674;2023-03-14T05:46:30;3.30;;;1.00;;
21769;SDS011;11046;49.558;8.674;2023-03-14T05:49:41;4.93;;;1.43;;
21769;SDS011;11046;49.558;8.674;2023-03-14T05:52:58;4.80;;;1.30;;
21769;SDS011;11046;49.558;8.674;2023-03-14T05:56:24;6.20;;;1.30;;
21769;SDS011;11046;49.558;8.674;2023-03-14T05:59:32;6.00;;;1.40;;
21769;SDS011;11046;49.558;8.674;2023-03-14T06:02:51;4.00;;;1.20;;
21769;SDS011;11046;49.558;8.674;2023-03-14T06:05:57;5.17;;;1.13;;
21769;SDS011;11046;49.558;8.674;2023-03-14T06:08:58;9.00;;;1.40;;
21769;SDS011;11046;49.558;8.674;2023-03-14T06:11:59;3.47;;;1.00;;
21769;SDS011;11046;49.558;8.674;2023-03-14T06:15:03;3.07;;;1.00;;
21769;SDS011;11046;49.558;8.674;2023-03-14T06:18:05;2.97;;;1.10;;
21769;SDS011;11046;49.558;8.674;2023-03-14T06:21:08;3.83;;;1.30;;
21769;SDS011;11046;49.558;8.674;2023-03-14T06:24:09;3.27;;;1.07;;
21769;SDS011;11046;49.558;8.674;2023-03-14T06:27:16;4.13;;;1.10;;
21769;SDS011;11046;49.558;8.674;2023-03-14T06:30:16;3.83;;;1.20;;
21769;SDS011;11046;49.558;8.674;2023-03-14T06:33:18;6.13;;;1.07;;
21769;SDS011;11046;49.558;8.674;2023-03-14T06:36:19;8.63;;;1.17;;
21769;SDS011;11046;49.558;8.674;2023-03-14T06:39:21;6.33;;;1.30;;
21769;SDS011;11046;49.558;8.674;2023-03-14T06:42:28;4.53;;;0.90;;
21769;SDS011;11046;49.558;8.674;2023-03-14T06:45:29;3.20;;;1.13;;
21769;SDS011;11046;49.558;8.674;2023-03-14T06:48:31;5.53;;;1.00;;
21769;SDS011;11046;49.558;8.674;2023-03-14T06:51:32;5.60;;;1.30;;
21769;SDS011;11046;49.558;8.674;2023-03-14T06:54:36;4.27;;;1.23;;
21769;SDS011;11046;49.558;8.674;2023-03-14T06:57:36;2.53;;;1.20;;
21769;SDS011;11046;49.558;8.674;2023-03-14T07:00:37;8.13;;;1.00;;
21769;SDS011;11046;49.558;8.674;2023-03-14T07:03:38;5.87;;;0.90;;
21769;SDS011;11046;49.558;8.674;2023-03-14T07:06:39;3.87;;;1.00;;
21769;SDS011;11046;49.558;8.674;2023-03-14T07:09:44;2.83;;;1.10;;
21769;SDS011;11046;49.558;8.674;2023-03-14T07:12:44;3.30;;;1.00;;
21769;SDS011;11046;49.558;8.674;2023-03-14T07:15:45;3.70;;;1.00;;
21769;SDS011;11046;49.558;8.674;2023-03-14T07:18:46;8.20;;;1.93;;
21769;SDS011;11046;49.558;8.674;2023-03-14T07:21:47;5.20;;;1.27;;
21769;SDS011;11046;49.558;8.674;2023-03-14T07:24:50;8.83;;;1.40;;
21769;SDS011;11046;49.558;8.674;2023-03-14T07:27:53;5.63;;;1.10;;
21769;SDS011;11046;49.558;8.674;2023-03-14T07:30:54;5.17;;;1.17;;
21769;SDS011;11046;49.558;8.674;2023-03-14T07:34:00;4.13;;;0.87;;
21769;SDS011;11046;49.558;8.674;2023-03-14T07:37:09;3.60;;;1.30;;
21769;SDS011;11046;49.558;8.674;2023-03-14T07:40:10;4.47;;;1.13;;
21769;SDS011;11046;49.558;8.674;2023-03-14T07:43:15;3.83;;;1.00;;
21769;SDS011;11046;49.558;8.674;2023-03-14T07:46:21;3.17;;;1.30;;
21769;SDS011;11046;49.558;8.674;2023-03-14T07:49:22;8.63;;;2.73;;
21769;SDS011;11046;49.558;8.674;2023-03-14T07:52:23;2.43;;;1.20;;
21769;SDS011;11046;49.558;8.674;2023-03-14T07:55:24;3.57;;;1.10;;
21769;SDS011;11046;49.558;8.674;2023-03-14T07:58:25;4.40;;;1.17;;
21769;SDS011;11046;49.558;8.674;2023-03-14T08:01:25;4.83;;;1.57;;
21769;SDS011;11046;49.558;8.674;2023-03-14T08:04:26;3.70;;;1.20;;
21769;SDS011;11046;49.558;8.674;2023-03-14T08:07:27;3.83;;;0.90;;
21769;SDS011;11046;49.558;8.674;2023-03-14T08:10:27;2.23;;;0.77;;
21769;SDS011;11046;49.558;8.674;2023-03-14T08:13:28;6.63;;;1.20;;
21769;SDS011;11046;49.558;8.674;2023-03-14T08:16:29;3.50;;;1.27;;
21769;SDS011;11046;49.558;8.674;2023-03-14T08:19:29;4.53;;;1.10;;
21769;SDS011;11046;49.558;8.674;2023-03-14T08:22:30;2.60;;;0.90;;
21769;SDS011;11046;49.558;8.674;2023-03-14T08:25:30;2.97;;;0.93;;
21769;SDS011;11046;49.558;8.674;2023-03-14T08:28:32;2.60;;;0.80;;
21769;SDS011;11046;49.558;8.674;2023-03-14T08:31:34;3.20;;;1.07;;
21769;SDS011;11046;49.558;8.674;2023-03-14T08:34:35;3.87;;;0.80;;
21769;SDS011;11046;49.558;8.674;2023-03-14T08:37:36;4.37;;;0.97;;
21769;SDS011;11046;49.558;8.674;2023-03-14T08:40:36;1.73;;;0.70;;
21769;SDS011;11046;49.558;8.674;2023-03-14T08:43:37;3.23;;;1.10;;
21769;SDS011;11046;49.558;8.674;2023-03-14T08:46:37;5.40;;;1.17;;
21769;SDS011;11046;49.558;8.674;2023-03-14T08:49:38;2.03;;;0.90;;
21769;SDS011;11046;49.558;8.674;2023-03-14T08:52:49;2.63;;;0.73;;
21769;SDS011;11046;49.558;8.674;2023-03-14T08:56:00;2.27;;;0.90;;
21769;SDS011;11046;49.558;8.674;2023-03-14T08:59:02;1.67;;;0.70;;
21769;SDS011;11046;49.558;8.674;2023-03-14T09:02:04;1.70;;;0.90;;
21769;SDS011;11046;49.558;8.674;2023-03-14T09:05:05;2.87;;;0.80;;
21769;SDS011;11046;49.558;8.674;2023-03-14T09:08:08;4.40;;;0.80;;
21769;SDS011;11046;49.558;8.674;2023-03-14T09:11:09;2.67;;;0.77;;
21769;SDS011;11046;49.558;8.674;2023-03-14T09:14:10;2.87;;;0.70;;
21769;SDS011;11046;49.558;8.674;2023-03-14T09:17:11;5.70;;;1.10;;
21769;SDS011;11046;49.558;8.674;2023-03-14T09:20:11;1.67;;;0.80;;
21769;SDS011;11046;49.558;8.674;2023-03-14T09:23:12;1.43;;;0.60;;
21769;SDS011;11046;49.558;8.674;2023-03-14T09:26:14;1.47;;;0.63;;
21769;SDS011;11046;49.558;8.674;2023-03-14T09:29:14;3.63;;;1.37;;
21769;SDS011;11046;49.558;8.674;2023-03-14T09:32:15;2.00;;;0.57;;
21769;SDS011;11046;49.558;8.674;2023-03-14T09:35:15;1.60;;;0.93;;
21769;SDS011;11046;49.558;8.674;2023-03-14T09:38:16;1.40;;;0.60;;
21769;SDS011;11046;49.558;8.674;2023-03-14T09:41:24;3.53;;;0.93;;
21769;SDS011;11046;49.558;8.674;2023-03-14T09:44:28;1.37;;;0.80;;
21769;SDS011;11046;49.558;8.674;2023-03-14T09:47:32;2.17;;;0.67;;
21769;SDS011;11046;49.558;8.674;2023-03-14T09:50:42;2.27;;;0.63;;
21769;SDS011;11046;49.558;8.674;2023-03-14T09:53:46;1.07;;;0.50;;
21769;SDS011;11046;49.558;8.674;2023-03-14T09:56:47;1.33;;;0.60;;
21769;SDS011;11046;49.558;8.674;2023-03-14T09:59:48;2.05;;;0.50;;
21769;SDS011;11046;49.558;8.674;2023-03-14T10:02:52;1.97;;;0.63;;
21769;SDS011;11046;49.558;8.674;2023-03-14T10:05:55;1.63;;;0.60;;
21769;SDS011;11046;49.558;8.674;2023-03-14T10:08:56;2.20;;;0.50;;
21769;SDS011;11046;49.558;8.674;2023-03-14T10:11:57;0.85;;;0.60;;
21769;SDS011;11046;49.558;8.674;2023-03-14T10:15:11;2.03;;;0.70;;
21769;SDS011;11046;49.558;8.674;2023-03-14T10:18:14;0.52;;;0.47;;
21769;SDS011;11046;49.558;8.674;2023-03-14T10:21:26;1.07;;;0.60;;
21769;SDS011;11046;49.558;8.674;2023-03-14T10:24:29;4.00;;;0.73;;
21769;SDS011;11046;49.558;8.674;2023-03-14T10:27:33;2.17;;;0.70;;
21769;SDS011;11046;49.558;8.674;2023-03-14T10:30:39;4.07;;;0.60;;
21769;SDS011;11046;49.558;8.674;2023-03-14T10:33:57;3.33;;;0.70;;
21769;SDS011;11046;49.558;8.674;2023-03-14T10:37:06;1.23;;;0.70;;
21769;SDS011;11046;49.558;8.674;2023-03-14T10:40:27;4.23;;;0.87;;
21769;SDS011;11046;49.558;8.674;2023-03-14T10:43:33;1.77;;;0.70;;
21769;SDS011;11046;49.558;8.674;2023-03-14T10:46:35;1.43;;;0.70;;
21769;SDS011;11046;49.558;8.674;2023-03-14T10:49:55;3.33;;;0.63;;
21769;SDS011;11046;49.558;8.674;2023-03-14T10:52:59;0.40;;;0.40;;
21769;SDS011;11046;49.558;8.674;2023-03-14T10:56:05;0.77;;;0.60;;
21769;SDS011;11046;49.558;8.674;2023-03-14T10:59:15;1.87;;;0.70;;
21769;SDS011;11046;49.558;8.674;2023-03-14T11:02:22;0.80;;;0.70;;
21769;SDS011;11046;49.558;8.674;2023-03-14T11:05:57;1.27;;;0.67;;
21769;SDS011;11046;49.558;8.674;2023-03-14T11:09:18;1.90;;;0.90;;
21769;SDS011;11046;49.558;8.674;2023-03-14T11:12:41;1.20;;;0.80;;
21769;SDS011;11046;49.558;8.674;2023-03-14T11:16:16;0.80;;;0.60;;
21769;SDS011;11046;49.558;8.674;2023-03-14T11:22:41;7.30;;;1.10;;
21769;SDS011;11046;49.558;8.674;2023-03-14T11:29:02;3.07;;;0.60;;
21769;SDS011;11046;49.558;8.674;2023-03-14T11:35:58;1.23;;;0.70;;
21769;SDS011;11046;49.558;8.674;2023-03-14T11:39:07;1.07;;;0.50;;
21769;SDS011;11046;49.558;8.674;2023-03-14T11:42:16;1.37;;;0.60;;
21769;SDS011;11046;49.558;8.674;2023-03-14T11:45:23;1.33;;;0.53;;
21769;SDS011;11046;49.558;8.674;2023-03-14T11:52:20;2.63;;;0.90;;
21769;SDS011;11046;49.558;8.674;2023-03-14T11:55:36;1.20;;;0.70;;
21769;SDS011;11046;49.558;8.674;2023-03-14T11:58:38;1.97;;;1.10;;
21769;SDS011;11046;49.558;8.674;2023-03-14T12:09:01;2.53;;;1.60;;
21769;SDS011;11046;49.558;8.674;2023-03-14T12:11:59;4.40;;;2.10;;
21769;SDS011;11046;49.558;8.674;2023-03-14T12:15:03;2.23;;;1.80;;
21769;SDS011;11046;49.558;8.674;2023-03-14T12:18:12;1.97;;;1.70;;
21769;SDS011;11046;49.558;8.674;2023-03-14T12:24:55;4.23;;;2.07;;
21769;SDS011;11046;49.558;8.674;2023-03-14T12:34:30;5.83;;;3.47;;
21769;SDS011;11046;49.558;8.674;2023-03-14T12:37:41;2.07;;;1.70;;
21769;SDS011;11046;49.558;8.674;2023-03-14T12:40:52;2.50;;;0.90;;
21769;SDS011;11046;49.558;8.674;2023-03-14T12:50:35;0.67;;;0.50;;
21769;SDS011;11046;49.558;8.674;2023-03-14T12:53:51;0.70;;;0.70;;
21769;SDS011;11046;49.558;8.674;2023-03-14T12:57:20;2.97;;;1.20;;
21769;SDS011;11046;49.558;8.674;2023-03-14T13:00:31;1.77;;;1.07;;
21769;SDS011;11046;49.558;8.674;2023-03-14T13:03:43;1.10;;;0.90;;
21769;SDS011;11046;49.558;8.674;2023-03-14T13:06:54;1.53;;;0.80;;
21769;SDS011;11046;49.558;8.674;2023-03-14T13:10:00;1.43;;;0.80;;
21769;SDS011;11046;49.558;8.674;2023-03-14T13:16:20;0.80;;;0.60;;
21769;SDS011;11046;49.558;8.674;2023-03-14T13:19:23;0.77;;;0.70;;
21769;SDS011;11046;49.558;8.674;2023-03-14T13:22:30;1.07;;;0.70;;
21769;SDS011;11046;49.558;8.674;2023-03-14T13:25:33;1.33;;;0.93;;
21769;SDS011;11046;49.558;8.674;2023-03-14T13:28:35;1.53;;;1.30;;
21769;SDS011;11046;49.558;8.674;2023-03-14T13:31:36;3.17;;;1.40;;
21769;SDS011;11046;49.558;8.674;2023-03-14T13:34:37;2.73;;;1.53;;
21769;SDS011;11046;49.558;8.674;2023-03-14T13:37:38;2.87;;;1.50;;
21769;SDS011;11046;49.558;8.674;2023-03-14T13:40:39;4.10;;;1.83;;
21769;SDS011;11046;49.558;8.674;2023-03-14T13:43:43;4.63;;;1.60;;
21769;SDS011;11046;49.558;8.674;2023-03-14T13:46:44;3.53;;;1.80;;
21769;SDS011;11046;49.558;8.674;2023-03-14T13:49:45;2.90;;;1.80;;
21769;SDS011;11046;49.558;8.674;2023-03-14T13:52:48;3.80;;;1.60;;
21769;SDS011;11046;49.558;8.674;2023-03-14T13:55:56;4.70;;;1.50;;
21769;SDS011;11046;49.558;8.674;2023-03-14T13:59:19;2.83;;;1.63;;
21769;SDS011;11046;49.558;8.674;2023-03-14T14:02:31;5.13;;;1.30;;
21769;SDS011;11046;49.558;8.674;2023-03-14T14:05:32;4.13;;;1.73;;
21769;SDS011;11046;49.558;8.674;2023-03-14T14:08:39;3.20;;;1.33;;
21769;SDS011;11046;49.558;8.674;2023-03-14T14:11:46;2.83;;;1.13;;
21769;SDS011;11046;49.558;8.674;2023-03-14T14:14:57;2.67;;;1.13;;
21769;SDS011;11046;49.558;8.674;2023-03-14T14:18:04;5.47;;;1.80;;
21769;SDS011;11046;49.558;8.674;2023-03-14T14:21:08;4.50;;;2.03;;
21769;SDS011;11046;49.558;8.674;2023-03-14T14:24:16;4.57;;;1.90;;
21769;SDS011;11046;49.558;8.674;2023-03-14T14:27:28;9.07;;;1.80;;
21769;SDS011;11046;49.558;8.674;2023-03-14T14:30:40;2.00;;;1.30;;
21769;SDS011;11046;49.558;8.674;2023-03-14T14:33:46;2.60;;;1.63;;
21769;SDS011;11046;49.558;8.674;2023-03-14T14:36:57;7.13;;;1.80;;
21769;SDS011;11046;49.558;8.674;2023-03-14T14:40:07;1.30;;;1.10;;
21769;SDS011;11046;49.558;8.674;2023-03-14T14:43:10;2.40;;;1.40;;
21769;SDS011;11046;49.558;8.674;2023-03-14T14:46:21;3.77;;;1.40;;
21769;SDS011;11046;49.558;8.674;2023-03-14T14:49:22;3.00;;;1.27;;
21769;SDS011;11046;49.558;8.674;2023-03-14T14:52:43;3.07;;;1.30;;
21769;SDS011;11046;49.558;8.674;2023-03-14T14:55:44;1.20;;;0.90;;
21769;SDS011;11046;49.558;8.674;2023-03-14T14:58:45;3.40;;;2.07;;
21769;SDS011;11046;49.558;8.674;2023-03-14T15:01:50;1.33;;;0.80;;
21769;SDS011;11046;49.558;8.674;2023-03-14T15:05:27;1.90;;;0.70;;
21769;SDS011;11046;49.558;8.674;2023-03-14T15:09:23;4.43;;;2.70;;
21769;SDS011;11046;49.558;8.674;2023-03-14T15:12:34;5.10;;;1.87;;
21769;SDS011;11046;49.558;8.674;2023-03-14T15:15:35;2.47;;;1.30;;
21769;SDS011;11046;49.558;8.674;2023-03-14T15:18:35;2.33;;;1.60;;
21769;SDS011;11046;49.558;8.674;2023-03-14T15:21:36;4.67;;;1.87;;
21769;SDS011;11046;49.558;8.674;2023-03-14T15:24:36;5.97;;;2.47;;
21769;SDS011;11046;49.558;8.674;2023-03-14T15:27:37;3.90;;;1.10;;
21769;SDS011;11046;49.558;8.674;2023-03-14T15:30:42;2.00;;;1.00;;
21769;SDS011;11046;49.558;8.674;2023-03-14T15:33:43;2.47;;;0.90;;
21769;SDS011;11046;49.558;8.674;2023-03-14T15:36:45;2.50;;;1.07;;
21769;SDS011;11046;49.558;8.674;2023-03-14T15:39:45;3.93;;;1.80;;
21769;SDS011;11046;49.558;8.674;2023-03-14T15:42:46;1.67;;;1.00;;
21769;SDS011;11046;49.558;8.674;2023-03-14T15:45:47;1.43;;;0.80;;
21769;SDS011;11046;49.558;8.674;2023-03-14T15:48:48;3.00;;;1.20;;
21769;SDS011;11046;49.558;8.674;2023-03-14T15:51:50;3.27;;;1.30;;
21769;SDS011;11046;49.558;8.674;2023-03-14T15:54:50;2.70;;;1.10;;
21769;SDS011;11046;49.558;8.674;2023-03-14T15:57:51;5.80;;;3.20;;
21769;SDS011;11046;49.558;8.674;2023-03-14T16:00:52;3.00;;;1.27;;
21769;SDS011;11046;49.558;8.674;2023-03-14T16:03:52;2.23;;;0.87;;
21769;SDS011;11046;49.558;8.674;2023-03-14T16:06:53;3.13;;;0.90;;
21769;SDS011;11046;49.558;8.674;2023-03-14T16:09:53;1.97;;;1.00;;
21769;SDS011;11046;49.558;8.674;2023-03-14T16:12:54;2.03;;;0.80;;
21769;SDS011;11046;49.558;8.674;2023-03-14T16:15:58;4.80;;;0.90;;
21769;SDS011;11046;49.558;8.674;2023-03-14T16:19:00;1.93;;;0.70;;
21769;SDS011;11046;49.558;8.674;2023-03-14T16:22:02;1.77;;;0.80;;
21769;SDS011;11046;49.558;8.674;2023-03-14T16:25:04;1.33;;;0.80;;
21769;SDS011;11046;49.558;8.674;2023-03-14T16:28:06;2.43;;;0.80;;
21769;SDS011;11046;49.558;8.674;2023-03-14T16:31:07;21.97;;;2.50;;
21769;SDS011;11046;49.558;8.674;2023-03-14T16:34:12;2.40;;;1.10;;
21769;SDS011;11046;49.558;8.674;2023-03-14T16:37:13;3.03;;;1.00;;
21769;SDS011;11046;49.558;8.674;2023-03-14T16:40:14;2.77;;;1.20;;
21769;SDS011;11046;49.558;8.674;2023-03-14T16:43:14;5.27;;;1.93;;
21769;SDS011;11046;49.558;8.674;2023-03-14T16:46:15;3.23;;;1.70;;
21769;SDS011;11046;49.558;8.674;2023-03-14T16:49:17;5.03;;;1.57;;
21769;SDS011;11046;49.558;8.674;2023-03-14T16:52:17;4.90;;;1.30;;
21769;SDS011;11046;49.558;8.674;2023-03-14T16:55:18;5.40;;;1.73;;
21769;SDS011;11046;49.558;8.674;2023-03-14T16:58:18;5.20;;;2.17;;
21769;SDS011;11046;49.558;8.674;2023-03-14T17:01:20;4.23;;;1.50;;
21769;SDS011;11046;49.558;8.674;2023-03-14T17:04:21;5.20;;;1.50;;
21769;SDS011;11046;49.558;8.674;2023-03-14T17:07:22;8.90;;;3.53;;
21769;SDS011;11046;49.558;8.674;2023-03-14T17:10:23;5.47;;;2.07;;
21769;SDS011;11046;49.558;8.674;2023-03-14T17:13:24;4.63;;;1.10;;
21769;SDS011;11046;49.558;8.674;2023-03-14T17:16:26;5.23;;;1.60;;
21769;SDS011;11046;49.558;8.674;2023-03-14T17:19:28;6.97;;;2.20;;
21769;SDS011;11046;49.558;8.674;2023-03-14T17:22:28;9.03;;;2.87;;
21769;SDS011;11046;49.558;8.674;2023-03-14T17:25:29;7.83;;;2.80;;
21769;SDS011;11046;49.558;8.674;2023-03-14T17:28:30;8.00;;;2.80;;
21769;SDS011;11046;49.558;8.674;2023-03-14T17:31:30;7.27;;;2.40;;
21769;SDS011;11046;49.558;8.674;2023-03-14T17:34:31;7.47;;;2.83;;
21769;SDS011;11046;49.558;8.674;2023-03-14T17:37:32;3.67;;;1.40;;
21769;SDS011;11046;49.558;8.674;2023-03-14T17:40:32;6.30;;;1.43;;
21769;SDS011;11046;49.558;8.674;2023-03-14T17:43:33;5.67;;;1.53;;
21769;SDS011;11046;49.558;8.674;2023-03-14T17:46:34;3.43;;;1.50;;
21769;SDS011;11046;49.558;8.674;2023-03-14T17:49:34;4.97;;;1.53;;
21769;SDS011;11046;49.558;8.674;2023-03-14T17:52:37;4.27;;;1.93;;
21769;SDS011;11046;49.558;8.674;2023-03-14T17:55:38;4.53;;;1.27;;
21769;SDS011;11046;49.558;8.674;2023-03-14T17:58:40;6.13;;;1.50;;
21769;SDS011;11046;49.558;8.674;2023-03-14T18:01:43;5.60;;;1.30;;
21769;SDS011;11046;49.558;8.674;2023-03-14T18:04:43;5.03;;;1.33;;
21769;SDS011;11046;49.558;8.674;2023-03-14T18:07:44;2.60;;;0.93;;
21769;SDS011;11046;49.558;8.674;2023-03-14T18:10:45;2.40;;;1.30;;
21769;SDS011;11046;49.558;8.674;2023-03-14T18:13:45;5.00;;;1.20;;
21769;SDS011;11046;49.558;8.674;2023-03-14T18:16:46;5.83;;;1.50;;
21769;SDS011;11046;49.558;8.674;2023-03-14T18:19:48;4.30;;;1.40;;
21769;SDS011;11046;49.558;8.674;2023-03-14T18:22:49;4.67;;;2.10;;
21769;SDS011;11046;49.558;8.674;2023-03-14T18:25:50;6.50;;;2.70;;
21769;SDS011;11046;49.558;8.674;2023-03-14T18:28:50;2.30;;;1.27;;
21769;SDS011;11046;49.558;8.674;2023-03-14T18:31:51;3.33;;;2.10;;
21769;SDS011;11046;49.558;8.674;2023-03-14T18:34:52;7.87;;;3.37;;
21769;SDS011;11046;49.558;8.674;2023-03-14T18:37:52;4.57;;;2.27;;
21769;SDS011;11046;49.558;8.674;2023-03-14T18:40:53;4.87;;;2.30;;
21769;SDS011;11046;49.558;8.674;2023-03-14T18:43:53;4.80;;;2.30;;
21769;SDS011;11046;49.558;8.674;2023-03-14T18:46:54;9.53;;;3.50;;
21769;SDS011;11046;49.558;8.674;2023-03-14T18:49:54;7.50;;;2.80;;
21769;SDS011;11046;49.558;8.674;2023-03-14T18:52:55;5.20;;;1.57;;
21769;SDS011;11046;49.558;8.674;2023-03-14T18:55:56;3.93;;;1.70;;
21769;SDS011;11046;49.558;8.674;2023-03-14T18:59:00;7.13;;;2.20;;
21769;SDS011;11046;49.558;8.674;2023-03-14T19:02:00;5.10;;;2.47;;
21769;SDS011;11046;49.558;8.674;2023-03-14T19:05:01;4.47;;;2.23;;
21769;SDS011;11046;49.558;8.674;2023-03-14T19:08:01;7.97;;;3.10;;
21769;SDS011;11046;49.558;8.674;2023-03-14T19:11:03;5.23;;;2.67;;
21769;SDS011;11046;49.558;8.674;2023-03-14T19:14:05;3.43;;;1.80;;
21769;SDS011;11046;49.558;8.674;2023-03-14T19:17:06;2.40;;;1.60;;